Athens Eleftherios, Greece

9:30 PM EEST on July 28, 2016 (GMT +0300)
Pallini Kantza | | Change Station

Elev 590 ft 37.99 °N, 23.86 °E | Updated 2 seconds ago

Clear
Clear
80.9 °F
Feels Like 80 °F
N
2.2
Wind Variable Wind from North
Gusts 2.2 mph

Today
High -- | Low -- °F
--% Chance of Precip.
Yesterday
High -- | Low -- °F
Precip. -- in
Pressure 29.86 in
Visibility -9999.0 miles
Clouds
Heat Index 80 °F
Dew Point 52 °F
Humidity 36%
Rainfall 0.00 in
Snow Depth Not available.
6:24 AM 8:36 PM
Waning Crescent, 30% visible
METAR LGEL 281820Z 34006KT CAVOK 29/07 Q1011
Pressure 29.86 in
Visibility -9999.0 miles
Clouds
Heat Index 80 °F
Dew Point 52 °F
Humidity 36%
Rainfall 0.00 in
Snow Depth Not available.
6:24 AM 8:36 PM
Waning Crescent, 30% visible
METAR LGEL 281820Z 34006KT CAVOK 29/07 Q1011

10-Day Weather Forecast

×

Almanac

Astronomy

Jul. 28, 2016 Rise Set
Actual Time
Civil Twilight
Nautical Twilight
Astronomical Twilight
Moon
Length of Visible Light
Length of Day
Tomorrow will be .
, % of the Moon is Illuminated

Today's Extremes

Country Highs Country Lows

Community

WunderPhotos

Upload Photos

1,928,174 photos uploaded!

WunderBlog® & News

Nearby

Air Quality

  Air Quality AQ Index Pollutant
Not available.

Snow Depth

Station Depth Elevation

Earthquake Activity

City Distance Mag. Time & Date
Minimum magnitude displayed is 2.5.

Coastal Water Temperatures

Place Temperature

Stations

Nearby Weather Stations

Station Location Temp. Windchill Dew Point Humidity Wind Precip. Elev Updated Type